Observation data for Lamesa on 02/13/2018      Previous  Date  Next       Current Mesonet Observations  Soil Data  Daily Summary Page  Observations in Plain Language
KLES 130600Z 11007KT 01/M08 A3024 RMK A01 T00141084  RH  049%=      5-min Rain = 0
KLES 130605Z 11007KT 01/M08 A3024 RMK A01 T00141084  RH  049%=      5-min Rain = 0
KLES 130610Z 11008KT 02/M08 A3024 RMK A01 T00151083  RH  048%=      5-min Rain = 0
KLES 130615Z 11009KT 02/M08 A3024 RMK A01 T00161083  RH  048%=      5-min Rain = 0
KLES 130620Z 11009KT 02/M08 A3024 RMK A01 T00161083  RH  048%=      5-min Rain = 0
KLES 130625Z 10008KT 02/M08 A3024 RMK A01 T00161083  RH  048%=      5-min Rain = 0
KLES 130630Z 10007KT 01/M08 A3024 RMK A01 T00141084  RH  049%=      5-min Rain = 0
KLES 130635Z 10008KT 01/M09 A3024 RMK A01 T00131085  RH  049%=      5-min Rain = 0
KLES 130640Z 10008KT 01/M09 A3024 RMK A01 T00121085  RH  049%=      5-min Rain = 0
KLES 130645Z 10008KT 01/M09 A3024 RMK A01 T00101085  RH  050%=      5-min Rain = 0
KLES 130650Z 10007KT 01/M09 A3024 RMK A01 T00101085  RH  050%=      5-min Rain = 0
KLES 130655Z 10008KT 01/M09 A3024 RMK A01 T00101085  RH  050%=      5-min Rain = 0
KLES 130700Z 10008KT 01/M09 A3024 RMK A01 T00101085  RH  050%=      5-min Rain = 0
KLES 130705Z 10008KT 01/M09 A3024 RMK A01 T00101085  RH  050%=      5-min Rain = 0
KLES 130710Z 10008KT 01/M09 A3024 RMK A01 T00091085  RH  050%=      5-min Rain = 0
KLES 130715Z 10008KT 01/M09 A3024 RMK A01 T00071085  RH  051%=      5-min Rain = 0
KLES 130720Z 10008KT 01/M08 A3024 RMK A01 T00071084  RH  051%=      5-min Rain = 0
KLES 130725Z 10007KT 01/M08 A3024 RMK A01 T00071084  RH  051%=      5-min Rain = 0
KLES 130730Z 10008KT 01/M08 A3023 RMK A01 T00081083  RH  051%=      5-min Rain = 0
KLES 130735Z 11009KT 01/M08 A3023 RMK A01 T00091084  RH  051%=      5-min Rain = 0
KLES 130740Z 10009KT 01/M08 A3023 RMK A01 T00091083  RH  051%=      5-min Rain = 0
KLES 130745Z 10008KT 01/M08 A3023 RMK A01 T00081083  RH  051%=      5-min Rain = 0
KLES 130750Z 10009KT 01/M08 A3023 RMK A01 T00061083  RH  052%=      5-min Rain = 0
KLES 130755Z 11009KT 01/M08 A3023 RMK A01 T00071082  RH  052%=      5-min Rain = 0
KLES 130800Z 11009KT 01/M08 A3023 RMK A01 T00071082  RH  052%=      5-min Rain = 0
KLES 130805Z 10008KT 01/M08 A3023 RMK A01 T00051082  RH  052%=      5-min Rain = 0
KLES 130810Z 10008KT 00/M08 A3023 RMK A01 T00031083  RH  053%=      5-min Rain = 0
KLES 130815Z 10007KT 00/M08 A3024 RMK A01 T00011084  RH  054%=      5-min Rain = 0
KLES 130820Z 10006KT 00/08 A3024 RMK A01 T00-00-83  RH  054%=      5-min Rain = 0
KLES 130825Z 10006KT 00/08 A3024 RMK A01 T00-00-83  RH  054%=      5-min Rain = 0
KLES 130830Z 10005KT M00/M08 A3023 RMK A01 T10021083  RH  055%=      5-min Rain = 0
KLES 130835Z 10005KT M00/M08 A3023 RMK A01 T10041083  RH  056%=      5-min Rain = 0
KLES 130840Z 10005KT M00/M08 A3023 RMK A01 T10041083  RH  056%=      5-min Rain = 0
KLES 130845Z 10005KT M01/M08 A3023 RMK A01 T10051082  RH  056%=      5-min Rain = 0
KLES 130850Z 10005KT M01/M08 A3023 RMK A01 T10051082  RH  057%=      5-min Rain = 0
KLES 130855Z 11005KT M01/M08 A3023 RMK A01 T10051081  RH  057%=      5-min Rain = 0
KLES 130900Z 10006KT M00/M08 A3023 RMK A01 T10041079  RH  057%=      5-min Rain = 0
KLES 130905Z 10005KT M01/M08 A3024 RMK A01 T10051080  RH  057%=      5-min Rain = 0
KLES 130910Z 09004KT M01/M08 A3024 RMK A01 T10071081  RH  058%=      5-min Rain = 0
KLES 130915Z 09005KT M01/M08 A3024 RMK A01 T10071079  RH  059%=      5-min Rain = 0
KLES 130920Z 08004KT M01/M08 A3024 RMK A01 T10061078  RH  059%=      5-min Rain = 0
KLES 130925Z 08005KT M01/M08 A3024 RMK A01 T10051077  RH  059%=      5-min Rain = 0
KLES 130930Z 09005KT M01/M08 A3024 RMK A01 T10061077  RH  059%=      5-min Rain = 0
KLES 130935Z 09005KT M01/M08 A3024 RMK A01 T10071077  RH  060%=      5-min Rain = 0
KLES 130940Z 08004KT M01/M08 A3024 RMK A01 T10071076  RH  060%=      5-min Rain = 0
KLES 130945Z 07003KT M01/M08 A3025 RMK A01 T10071075  RH  060%=      5-min Rain = 0
KLES 130950Z 04003KT M01/M08 A3025 RMK A01 T10091077  RH  061%=      5-min Rain = 0
KLES 130955Z 03002KT M01/M08 A3025 RMK A01 T10111076  RH  062%=      5-min Rain = 0
KLES 131000Z 03002KT M01/M08 A3025 RMK A01 T10141078  RH  063%=      5-min Rain = 0
KLES 131005Z 04002KT M01/M08 A3025 RMK A01 T10141077  RH  063%=      5-min Rain = 0
KLES 131010Z 03003KT M02/M08 A3025 RMK A01 T10151079  RH  063%=      5-min Rain = 0
KLES 131015Z 04003KT M02/M08 A3025 RMK A01 T10191083  RH  063%=      5-min Rain = 0
KLES 131020Z 05003KT M02/M09 A3025 RMK A01 T10231085  RH  063%=      5-min Rain = 0
KLES 131025Z 06003KT M03/M09 A3025 RMK A01 T10251085  RH  064%=      5-min Rain = 0
KLES 131030Z 06003KT M03/M09 A3025 RMK A01 T10251085  RH  064%=      5-min Rain = 0
KLES 131035Z 07003KT M03/M09 A3025 RMK A01 T10261085  RH  065%=      5-min Rain = 0
KLES 131040Z 08004KT M03/M08 A3025 RMK A01 T10251084  RH  065%=      5-min Rain = 0
KLES 131045Z 08003KT M03/M08 A3025 RMK A01 T10251084  RH  065%=      5-min Rain = 0
KLES 131050Z 09004KT M03/M08 A3025 RMK A01 T10251083  RH  065%=      5-min Rain = 0
KLES 131055Z 10004KT M03/M08 A3025 RMK A01 T10261084  RH  065%=      5-min Rain = 0
KLES 131100Z 10004KT M03/M08 A3025 RMK A01 T10261084  RH  065%=      5-min Rain = 0
KLES 131105Z 10004KT M03/M08 A3025 RMK A01 T10251082  RH  066%=      5-min Rain = 0
KLES 131110Z 09003KT M02/M08 A3026 RMK A01 T10241078  RH  067%=      5-min Rain = 0
KLES 131115Z 09004KT M02/M08 A3026 RMK A01 T10221076  RH  067%=      5-min Rain = 0
KLES 131120Z 10004KT M02/M08 A3026 RMK A01 T10211076  RH  067%=      5-min Rain = 0
KLES 131125Z 10005KT M02/M08 A3026 RMK A01 T10221076  RH  067%=      5-min Rain = 0
KLES 131130Z 10006KT M02/M07 A3026 RMK A01 T10201074  RH  068%=      5-min Rain = 0
KLES 131135Z 10005KT M02/M07 A3026 RMK A01 T10201074  RH  067%=      5-min Rain = 0
KLES 131140Z 10005KT M02/M07 A3027 RMK A01 T10211074  RH  068%=      5-min Rain = 0
KLES 131145Z 10006KT M02/M08 A3027 RMK A01 T10221075  RH  068%=      5-min Rain = 0
KLES 131150Z 10006KT M02/M07 A3027 RMK A01 T10221074  RH  068%=      5-min Rain = 0
KLES 131155Z 09006KT M02/M07 A3027 RMK A01 T10221074  RH  068%=      5-min Rain = 0
KLES 131200Z 09005KT M02/M07 A3026 RMK A01 T10221074  RH  069%=      5-min Rain = 0
KLES 131205Z 09005KT M02/M07 A3026 RMK A01 T10231073  RH  069%=      5-min Rain = 0
KLES 131210Z 10005KT M02/M07 A3026 RMK A01 T10211070  RH  070%=      5-min Rain = 0
KLES 131215Z 10004KT M02/M07 A3026 RMK A01 T10221072  RH  069%=      5-min Rain = 0
KLES 131220Z 10005KT M02/M07 A3026 RMK A01 T10231072  RH  070%=      5-min Rain = 0
KLES 131225Z 10006KT M02/M07 A3026 RMK A01 T10221069  RH  071%=      5-min Rain = 0
KLES 131230Z 10006KT M02/M07 A3026 RMK A01 T10221069  RH  071%=      5-min Rain = 0
KLES 131235Z 10005KT M02/M07 A3026 RMK A01 T10211068  RH  071%=      5-min Rain = 0
KLES 131240Z 09005KT M02/M07 A3026 RMK A01 T10211068  RH  071%=      5-min Rain = 0
KLES 131245Z 09004KT M02/M07 A3027 RMK A01 T10221068  RH  072%=      5-min Rain = 0
KLES 131250Z 09004KT M02/M07 A3027 RMK A01 T10211066  RH  072%=      5-min Rain = 0
KLES 131255Z 10005KT M02/M06 A3027 RMK A01 T10191064  RH  072%=      5-min Rain = 0
KLES 131300Z 12004KT M02/M06 A3027 RMK A01 T10181062  RH  072%=      5-min Rain = 0
KLES 131305Z 13005KT M02/M06 A3027 RMK A01 T10151059  RH  073%=      5-min Rain = 0
KLES 131310Z 13006KT M01/M06 A3027 RMK A01 T10141056  RH  074%=      5-min Rain = 0
KLES 131315Z 14005KT M01/M05 A3027 RMK A01 T10111052  RH  075%=      5-min Rain = 0
KLES 131320Z 14006KT M01/M05 A3028 RMK A01 T10091050  RH  074%=      5-min Rain = 0
KLES 131325Z 15007KT M01/M04 A3028 RMK A01 T10051042  RH  077%=      5-min Rain = 0
KLES 131330Z 16006KT 00/M04 A3028 RMK A01 T00011035  RH  077%=      5-min Rain = 0
KLES 131335Z 16005KT 00/M03 A3028 RMK A01 T00041034  RH  077%=      5-min Rain = 0
KLES 131340Z 16006KT 01/M03 A3029 RMK A01 T00061030  RH  078%=      5-min Rain = 0
KLES 131345Z 16005KT 01/M03 A3029 RMK A01 T00111026  RH  077%=      5-min Rain = 0
KLES 131350Z 16005KT 01/M03 A3028 RMK A01 T00131025  RH  076%=      5-min Rain = 0
KLES 131355Z 18005KT 02/M02 A3029 RMK A01 T00151024  RH  076%=      5-min Rain = 0
KLES 131400Z 17004KT 02/M02 A3029 RMK A01 T00171022  RH  076%=      5-min Rain = 0
KLES 131405Z 17003KT 02/M02 A303 RMK A01 T00181022  RH  076%=      5-min Rain = 0
KLES 131410Z 18004G9KT 02/M02 A303 RMK A01 T00191021  RH  075%=      5-min Rain = 0
KLES 131415Z 18007KT 03/M01 A303 RMK A01 T00261010  RH  079%=      5-min Rain = 0
KLES 131420Z 18007KT 03/M00 A303 RMK A01 T00301004  RH  079%=      5-min Rain = 0
KLES 131425Z 18009KT 03/00 A303 RMK A01 T00330001  RH  081%=      5-min Rain = 0
KLES 131430Z 18008KT 04/00 A303 RMK A01 T00350004  RH  081%=      5-min Rain = 0
KLES 131435Z 17007KT 04/01 A303 RMK A01 T00360006  RH  081%=      5-min Rain = 0
KLES 131440Z 18008KT 04/01 A3031 RMK A01 T00370006  RH  081%=      5-min Rain = 0
KLES 131445Z 18009KT 04/01 A3031 RMK A01 T00370007  RH  081%=      5-min Rain = 0
KLES 131450Z 18008KT 04/01 A3031 RMK A01 T00380008  RH  081%=      5-min Rain = 0
KLES 131455Z 17008KT 04/01 A3031 RMK A01 T00410008  RH  080%=      5-min Rain = 0
KLES 131500Z 17010KT 04/01 A3032 RMK A01 T00420007  RH  079%=      5-min Rain = 0
KLES 131505Z 17009KT 04/01 A3032 RMK A01 T00430007  RH  078%=      5-min Rain = 0
KLES 131510Z 17009KT 04/01 A3032 RMK A01 T00440005  RH  076%=      5-min Rain = 0
KLES 131515Z 17009KT 05/00 A3033 RMK A01 T00450002  RH  075%=      5-min Rain = 0
KLES 131520Z 14007KT 04/M01 A3032 RMK A01 T00441005  RH  071%=      5-min Rain = 0
KLES 131525Z 13006KT 04/M01 A3032 RMK A01 T00441007  RH  070%=      5-min Rain = 0
KLES 131530Z 14006KT 04/M01 A3033 RMK A01 T00441007  RH  070%=      5-min Rain = 0
KLES 131535Z 13007KT 04/M01 A3032 RMK A01 T00441011  RH  068%=      5-min Rain = 0
KLES 131540Z 13006KT 04/M01 A3033 RMK A01 T00441008  RH  070%=      5-min Rain = 0
KLES 131545Z 13006KT 05/M01 A3033 RMK A01 T00451008  RH  069%=      5-min Rain = 0
KLES 131550Z 11005KT 05/M01 A3033 RMK A01 T00451010  RH  068%=      5-min Rain = 0
KLES 131555Z 11006KT 05/M01 A3033 RMK A01 T00451009  RH  068%=      5-min Rain = 0
KLES 131600Z 12005KT 05/M01 A3033 RMK A01 T00471009  RH  068%=      5-min Rain = 0
KLES 131605Z 13006KT 05/M00 A3033 RMK A01 T00491003  RH  070%=      5-min Rain = 0
KLES 131610Z 12007KT 05/M01 A3033 RMK A01 T00501005  RH  068%=      5-min Rain = 0
KLES 131615Z 12006KT 05/M00 A3033 RMK A01 T00501004  RH  069%=      5-min Rain = 0
KLES 131620Z 14007KT 05/M00 A3033 RMK A01 T00541003  RH  067%=      5-min Rain = 0
KLES 131625Z 15007KT 06/M00 A3033 RMK A01 T00571002  RH  067%=      5-min Rain = 0
KLES 131630Z 15008KT 06/00 A3033 RMK A01 T00580001  RH  067%=      5-min Rain = 0
KLES 131635Z 15008KT 06/00 A3033 RMK A01 T00600003  RH  068%=      5-min Rain = 0
KLES 131640Z 15009KT 06/01 A3033 RMK A01 T00630008  RH  069%=      5-min Rain = 0
KLES 131645Z 15011KT 06/01 A3034 RMK A01 T00640010  RH  069%=      5-min Rain = 0
KLES 131650Z 16011KT 07/01 A3034 RMK A01 T00660013  RH  070%=      5-min Rain = 0
KLES 131655Z 15011KT 07/01 A3034 RMK A01 T00690013  RH  069%=      5-min Rain = 0
KLES 131700Z 16012KT 07/01 A3034 RMK A01 T00700013  RH  068%=      5-min Rain = 0
KLES 131705Z 16012KT 07/01 A3035 RMK A01 T00700012  RH  067%=      5-min Rain = 0
KLES 131710Z 17009KT 07/01 A3034 RMK A01 T00730013  RH  066%=      5-min Rain = 0
KLES 131715Z 17010G15KT 08/01 A3034 RMK A01 T00750011  RH  065%=      5-min Rain = 0
KLES 131720Z 17009G14KT 08/01 A3034 RMK A01 T00790013  RH  064%=      5-min Rain = 0
KLES 131725Z 15011KT 08/01 A3034 RMK A01 T00790013  RH  064%=      5-min Rain = 0
KLES 131730Z 17009G15KT 08/01 A3034 RMK A01 T00800013  RH  063%=      5-min Rain = 0
KLES 131735Z 17010G15KT 08/02 A3034 RMK A01 T00830015  RH  063%=      5-min Rain = 0
KLES 131740Z 16010G15KT 08/02 A3033 RMK A01 T00830015  RH  063%=      5-min Rain = 0
KLES 131745Z 17010KT 08/02 A3033 RMK A01 T00830016  RH  063%=      5-min Rain = 0
KLES 131750Z 16007KT 09/02 A3033 RMK A01 T00860016  RH  062%=      5-min Rain = 0
KLES 131755Z 17009KT 09/02 A3032 RMK A01 T00890020  RH  062%=      5-min Rain = 0
KLES 131800Z 16009G14KT 09/02 A3032 RMK A01 T00890020  RH  063%=      5-min Rain = 0
KLES 131805Z 17011KT 09/02 A3032 RMK A01 T00930023  RH  063%=      5-min Rain = 0
KLES 131810Z 17009KT 09/02 A3032 RMK A01 T00940021  RH  061%=      5-min Rain = 0
KLES 131815Z 17010G15KT 10/02 A3031 RMK A01 T00950022  RH  061%=      5-min Rain = 0
KLES 131820Z 18009G15KT 10/02 A3031 RMK A01 T01020023  RH  059%=      5-min Rain = 0
KLES 131825Z 17011KT 10/02 A3031 RMK A01 T01020024  RH  059%=      5-min Rain = 0
KLES 131830Z 19011KT 10/03 A3031 RMK A01 T01030025  RH  059%=      5-min Rain = 0
KLES 131835Z 18010KT 11/03 A3031 RMK A01 T01060028  RH  059%=      5-min Rain = 0
KLES 131840Z 18010KT 11/03 A3031 RMK A01 T01090029  RH  059%=      5-min Rain = 0
KLES 131845Z 16010KT 11/03 A303 RMK A01 T01100030  RH  058%=      5-min Rain = 0
KLES 131850Z 15009G14KT 11/03 A303 RMK A01 T01130033  RH  059%=      5-min Rain = 0
KLES 131855Z 16010KT 12/04 A303 RMK A01 T01150035  RH  059%=      5-min Rain = 0
KLES 131900Z 15011G18KT 12/04 A303 RMK A01 T01180038  RH  059%=      5-min Rain = 0
KLES 131905Z 16010G15KT 12/04 A303 RMK A01 T01180039  RH  059%=      5-min Rain = 0
KLES 131910Z 15010KT 12/04 A303 RMK A01 T01200041  RH  059%=      5-min Rain = 0
KLES 131915Z 15009G15KT 12/04 A303 RMK A01 T01200042  RH  059%=      5-min Rain = 0
KLES 131920Z 17008G18KT 13/04 A3029 RMK A01 T01250044  RH  058%=      5-min Rain = 0
KLES 131925Z 15009G14KT 13/04 A3029 RMK A01 T01300044  RH  057%=      5-min Rain = 0
KLES 131930Z 15010G15KT 14/04 A3029 RMK A01 T01350044  RH  055%=      5-min Rain = 0
KLES 131935Z 15011KT 14/04 A3029 RMK A01 T01350043  RH  054%=      5-min Rain = 0
KLES 131940Z 16010KT 14/04 A3028 RMK A01 T01360043  RH  054%=      5-min Rain = 0
KLES 131945Z 15010G15KT 14/04 A3027 RMK A01 T01380042  RH  053%=      5-min Rain = 0
KLES 131950Z 15010KT 14/04 A3027 RMK A01 T01410042  RH  052%=      5-min Rain = 0
KLES 131955Z 18011G16KT 14/04 A3026 RMK A01 T01440041  RH  051%=      5-min Rain = 0
KLES 132000Z 16010KT 15/04 A3026 RMK A01 T01460040  RH  050%=      5-min Rain = 0
KLES 132005Z 15011G16KT 15/04 A3026 RMK A01 T01480040  RH  049%=      5-min Rain = 0
KLES 132010Z 15011KT 15/04 A3026 RMK A01 T01490039  RH  048%=      5-min Rain = 0
KLES 132015Z 16010G16KT 15/04 A3026 RMK A01 T01490039  RH  049%=      5-min Rain = 0
KLES 132020Z 15011G17KT 15/04 A3025 RMK A01 T01480040  RH  049%=      5-min Rain = 0
KLES 132025Z 16010KT 15/04 A3025 RMK A01 T01490040  RH  048%=      5-min Rain = 0
KLES 132030Z 16011G17KT 15/04 A3025 RMK A01 T01530039  RH  047%=      5-min Rain = 0
KLES 132035Z 17011KT 16/04 A3024 RMK A01 T01560038  RH  046%=      5-min Rain = 0
KLES 132040Z 16012G17KT 16/04 A3024 RMK A01 T01590038  RH  045%=      5-min Rain = 0
KLES 132045Z 17012G18KT 16/04 A3024 RMK A01 T01560036  RH  045%=      5-min Rain = 0
KLES 132050Z 16012KT 16/04 A3024 RMK A01 T01560036  RH  045%=      5-min Rain = 0
KLES 132055Z 18011G17KT 16/04 A3024 RMK A01 T01550037  RH  046%=      5-min Rain = 0
KLES 132100Z 16010KT 16/04 A3024 RMK A01 T01580035  RH  044%=      5-min Rain = 0
KLES 132105Z 16007KT 16/04 A3024 RMK A01 T01570035  RH  045%=      5-min Rain = 0
KLES 132110Z 18011KT 16/04 A3024 RMK A01 T01600036  RH  044%=      5-min Rain = 0
KLES 132115Z 17009KT 16/04 A3024 RMK A01 T01610036  RH  044%=      5-min Rain = 0
KLES 132120Z 17010KT 16/04 A3024 RMK A01 T01620035  RH  043%=      5-min Rain = 0
KLES 132125Z 17010KT 16/04 A3023 RMK A01 T01600036  RH  044%=      5-min Rain = 0
KLES 132130Z 16011KT 16/04 A3023 RMK A01 T01630037  RH  043%=      5-min Rain = 0
KLES 132135Z 15010KT 17/04 A3023 RMK A01 T01650036  RH  043%=      5-min Rain = 0
KLES 132140Z 16009KT 17/04 A3023 RMK A01 T01650037  RH  043%=      5-min Rain = 0
KLES 132145Z 17008KT 17/04 A3023 RMK A01 T01660038  RH  043%=      5-min Rain = 0
KLES 132150Z 17007KT 17/04 A3023 RMK A01 T01680040  RH  043%=      5-min Rain = 0
KLES 132155Z 19009KT 17/04 A3023 RMK A01 T01710040  RH  042%=      5-min Rain = 0
KLES 132200Z 17005G12KT 17/04 A3023 RMK A01 T01740040  RH  041%=      5-min Rain = 0
KLES 132205Z 15009KT 18/04 A3024 RMK A01 T01750038  RH  041%=      5-min Rain = 0
KLES 132210Z 17010KT 17/04 A3023 RMK A01 T01720040  RH  042%=      5-min Rain = 0
KLES 132215Z 18007KT 17/04 A3023 RMK A01 T01700041  RH  043%=      5-min Rain = 0
KLES 132220Z 16009KT 17/04 A3022 RMK A01 T01700040  RH  042%=      5-min Rain = 0
KLES 132225Z 17008KT 17/04 A3022 RMK A01 T01730041  RH  042%=      5-min Rain = 0
KLES 132230Z 17006KT 17/04 A3022 RMK A01 T01730042  RH  042%=      5-min Rain = 0
KLES 132235Z 15006KT 17/04 A3022 RMK A01 T01740043  RH  042%=      5-min Rain = 0
KLES 132240Z 19007KT 18/04 A3022 RMK A01 T01780043  RH  041%=      5-min Rain = 0
KLES 132245Z 19007KT 18/04 A3022 RMK A01 T01750043  RH  042%=      5-min Rain = 0
KLES 132250Z 17008KT 17/04 A3022 RMK A01 T01730043  RH  043%=      5-min Rain = 0
KLES 132255Z 18007KT 17/04 A3022 RMK A01 T01730042  RH  042%=      5-min Rain = 0
KLES 132300Z 19008KT 17/04 A3022 RMK A01 T01740044  RH  043%=      5-min Rain = 0
KLES 132305Z 19008KT 18/04 A3023 RMK A01 T01770044  RH  042%=      5-min Rain = 0
KLES 132310Z 18008KT 18/04 A3023 RMK A01 T01770044  RH  042%=      5-min Rain = 0
KLES 132315Z 19007G14KT 18/04 A3023 RMK A01 T01780044  RH  042%=      5-min Rain = 0
KLES 132320Z 19009KT 17/04 A3023 RMK A01 T01730044  RH  043%=      5-min Rain = 0
KLES 132325Z 18007KT 17/04 A3023 RMK A01 T01690041  RH  043%=      5-min Rain = 0
KLES 132330Z 19007KT 17/04 A3023 RMK A01 T01660042  RH  044%=      5-min Rain = 0
KLES 132335Z 19007KT 16/04 A3023 RMK A01 T01640042  RH  045%=      5-min Rain = 0
KLES 132340Z 19008KT 16/04 A3023 RMK A01 T01640040  RH  044%=      5-min Rain = 0
KLES 132345Z 19008KT 16/04 A3024 RMK A01 T01620039  RH  044%=      5-min Rain = 0
KLES 132350Z 19007KT 16/04 A3024 RMK A01 T01600038  RH  045%=      5-min Rain = 0
KLES 132355Z 19006KT 16/04 A3024 RMK A01 T01570038  RH  046%=      5-min Rain = 0
KLES 140000Z 19006KT 15/04 A3024 RMK A01 T01540037  RH  046%=      5-min Rain = 0
KLES 140005Z 18006KT 15/04 A3024 RMK A01 T01530036  RH  046%=      5-min Rain = 0
KLES 140010Z 19006KT 15/04 A3024 RMK A01 T01490037  RH  047%=      5-min Rain = 0
KLES 140015Z 19006KT 15/04 A3024 RMK A01 T01450037  RH  049%=      5-min Rain = 0
KLES 140020Z 18005KT 14/04 A3024 RMK A01 T01400036  RH  050%=      5-min Rain = 0
KLES 140025Z 18005KT 14/04 A3024 RMK A01 T01360036  RH  051%=      5-min Rain = 0
KLES 140030Z 18004KT 13/04 A3024 RMK A01 T01330035  RH  052%=      5-min Rain = 0
KLES 140035Z 19004KT 13/03 A3024 RMK A01 T01320031  RH  051%=      5-min Rain = 0
KLES 140040Z 18004KT 13/03 A3024 RMK A01 T01330028  RH  050%=      5-min Rain = 0
KLES 140045Z 18004KT 13/03 A3024 RMK A01 T01320027  RH  049%=      5-min Rain = 0
KLES 140050Z 19004KT 13/03 A3024 RMK A01 T01310026  RH  050%=      5-min Rain = 0
KLES 140055Z 19004KT 13/03 A3024 RMK A01 T01290027  RH  050%=      5-min Rain = 0
KLES 140100Z 19004KT 13/03 A3024 RMK A01 T01280026  RH  050%=      5-min Rain = 0
KLES 140105Z 19004KT 13/03 A3025 RMK A01 T01260025  RH  051%=      5-min Rain = 0
KLES 140110Z 18004KT 12/02 A3024 RMK A01 T01240024  RH  051%=      5-min Rain = 0
KLES 140115Z 18004KT 12/02 A3025 RMK A01 T01230022  RH  051%=      5-min Rain = 0
KLES 140120Z 17004KT 12/02 A3025 RMK A01 T01190020  RH  051%=      5-min Rain = 0
KLES 140125Z 17005KT 12/02 A3025 RMK A01 T01180020  RH  051%=      5-min Rain = 0
KLES 140130Z 17006KT 12/02 A3025 RMK A01 T01190021  RH  052%=      5-min Rain = 0
KLES 140135Z 16006KT 12/02 A3025 RMK A01 T01180022  RH  053%=      5-min Rain = 0
KLES 140140Z 16005KT 11/03 A3025 RMK A01 T01140025  RH  055%=      5-min Rain = 0
KLES 140145Z 16005KT 11/03 A3025 RMK A01 T01120025  RH  056%=      5-min Rain = 0
KLES 140150Z 16004KT 11/03 A3025 RMK A01 T01100025  RH  056%=      5-min Rain = 0
KLES 140155Z 17004KT 11/02 A3025 RMK A01 T01100024  RH  056%=      5-min Rain = 0
KLES 140200Z 17005KT 11/02 A3025 RMK A01 T01110022  RH  055%=      5-min Rain = 0
KLES 140205Z 17005KT 11/02 A3025 RMK A01 T01130020  RH  053%=      5-min Rain = 0
KLES 140210Z 18005KT 11/02 A3025 RMK A01 T01140020  RH  053%=      5-min Rain = 0
KLES 140215Z 18005KT 11/02 A3025 RMK A01 T01130019  RH  053%=      5-min Rain = 0
KLES 140220Z 17005KT 11/02 A3025 RMK A01 T01110018  RH  054%=      5-min Rain = 0
KLES 140225Z 18004KT 11/02 A3025 RMK A01 T01090018  RH  054%=      5-min Rain = 0
KLES 140230Z 18005KT 11/02 A3025 RMK A01 T01100017  RH  054%=      5-min Rain = 0
KLES 140235Z 18005KT 11/02 A3025 RMK A01 T01090016  RH  053%=      5-min Rain = 0
KLES 140240Z 18005KT 11/02 A3025 RMK A01 T01080016  RH  054%=      5-min Rain = 0
KLES 140245Z 18005KT 11/02 A3025 RMK A01 T01070016  RH  054%=      5-min Rain = 0
KLES 140250Z 18005KT 11/02 A3025 RMK A01 T01070015  RH  054%=      5-min Rain = 0
KLES 140255Z 18005KT 11/02 A3025 RMK A01 T01050015  RH  054%=      5-min Rain = 0
KLES 140300Z 19005KT 10/02 A3025 RMK A01 T01040015  RH  054%=      5-min Rain = 0
KLES 140305Z 19006KT 11/01 A3025 RMK A01 T01060014  RH  053%=      5-min Rain = 0
KLES 140310Z 19005KT 11/01 A3025 RMK A01 T01050013  RH  054%=      5-min Rain = 0
KLES 140315Z 19006KT 10/01 A3025 RMK A01 T01030013  RH  054%=      5-min Rain = 0
KLES 140320Z 19005KT 10/01 A3025 RMK A01 T01030014  RH  054%=      5-min Rain = 0
KLES 140325Z 18004KT 10/01 A3025 RMK A01 T01030014  RH  055%=      5-min Rain = 0
KLES 140330Z 18004KT 10/01 A3025 RMK A01 T01020013  RH  055%=      5-min Rain = 0
KLES 140335Z 16004KT 10/01 A3025 RMK A01 T01010012  RH  054%=      5-min Rain = 0
KLES 140340Z 16004KT 10/01 A3026 RMK A01 T00980009  RH  054%=      5-min Rain = 0
KLES 140345Z 16004KT 10/01 A3026 RMK A01 T00970011  RH  056%=      5-min Rain = 0
KLES 140350Z 15004KT 10/01 A3026 RMK A01 T00980011  RH  055%=      5-min Rain = 0
KLES 140355Z 13004KT 10/01 A3026 RMK A01 T00950008  RH  055%=      5-min Rain = 0
KLES 140400Z 14005KT 09/01 A3026 RMK A01 T00940008  RH  055%=      5-min Rain = 0
KLES 140405Z 14005KT 10/01 A3026 RMK A01 T00950008  RH  055%=      5-min Rain = 0
KLES 140410Z 15006KT 09/01 A3026 RMK A01 T00940008  RH  056%=      5-min Rain = 0
KLES 140415Z 16006KT 09/01 A3026 RMK A01 T00920006  RH  056%=      5-min Rain = 0
KLES 140420Z 16005KT 09/01 A3026 RMK A01 T00850008  RH  059%=      5-min Rain = 0
KLES 140425Z 17006KT 08/01 A3026 RMK A01 T00820005  RH  059%=      5-min Rain = 0
KLES 140430Z 17005KT 08/00 A3026 RMK A01 T00800003  RH  059%=      5-min Rain = 0
KLES 140435Z 16006KT 08/00 A3026 RMK A01 T00760001  RH  060%=      5-min Rain = 0
KLES 140440Z 16006KT 07/00 A3026 RMK A01 T00740002  RH  061%=      5-min Rain = 0
KLES 140445Z 15006KT 08/00 A3025 RMK A01 T00760004  RH  061%=      5-min Rain = 0
KLES 140450Z 15006KT 08/01 A3025 RMK A01 T00780007  RH  062%=      5-min Rain = 0
KLES 140455Z 16005KT 08/01 A3026 RMK A01 T00790008  RH  061%=      5-min Rain = 0
KLES 140500Z 16005KT 08/01 A3026 RMK A01 T00760008  RH  063%=      5-min Rain = 0
KLES 140505Z 16005KT 07/00 A3026 RMK A01 T00720004  RH  063%=      5-min Rain = 0
KLES 140510Z 16004KT 07/00 A3026 RMK A01 T00680002  RH  063%=      5-min Rain = 0
KLES 140515Z 16004KT 07/00 A3026 RMK A01 T00660001  RH  064%=      5-min Rain = 0
KLES 140520Z 16004KT 07/00 A3026 RMK A01 T00650001  RH  064%=      5-min Rain = 0
KLES 140525Z 17004KT 07/00 A3026 RMK A01 T00660002  RH  064%=      5-min Rain = 0
KLES 140530Z 17004KT 07/00 A3026 RMK A01 T00660002  RH  064%=      5-min Rain = 0
KLES 140535Z 16003KT 06/00 A3026 RMK A01 T00640001  RH  064%=      5-min Rain = 0
KLES 140540Z 17003KT 06/M00 A3027 RMK A01 T00611002  RH  065%=      5-min Rain = 0
KLES 140545Z 17004KT 06/M00 A3026 RMK A01 T00581003  RH  066%=      5-min Rain = 0
KLES 140550Z 15003KT 06/M00 A3026 RMK A01 T00561001  RH  067%=      5-min Rain = 0
KLES 140555Z 16003KT 06/M00 A3026 RMK A01 T00551002  RH  067%=      5-min Rain = 0

Page generated in 0.0347 seconds.